METAR Data
IDs: Format: Raw Decoded Include TAF

Data at: 0810 UTC 10 Dec 2022

Region: TOP
KATL 100752Z 07008KT 1/2SM R09R/P6000FT -DZ BR BKN004 OVC008 13/12 A3016 RMK AO2 SFC VIS 3 DZB49 SLP210 CIG 002V006 P0000 T01280122

KBOS 100754Z 35009KT 10SM SCT030 01/M09 A3034 RMK AO2 SLP275 T00061089

KBWI 100754Z 28004KT 10SM CLR M03/M05 A3030 RMK AO2 SLP262 T10281050

KCLE 100751Z 09009KT 10SM OVC043 03/M04 A3019 RMK AO2 SLP246 T00281039

KCLT 100752Z 09004KT 10SM OVC025 09/07 A3022 RMK SLP232 T00890067

KCVG 100752Z 00000KT 3SM BR OVC019 07/06 A3016 RMK AO2 SLP214 T00670061 $

KDCA 100752Z 02006KT 10SM CLR 01/M02 A3032 RMK AO2 SLP265 T00111022 $

KDEN 100753Z 28011KT 10SM CLR 04/M14 A3003 RMK AO2 PK WND 30031/0725 SLP155 T00391144

KDFW 100753Z 16003KT 1/4SM R17C/P6000FT BR OVC001 18/18 A3003 RMK AO2 SFC VIS 1 1/2 SLP162 T01780178

KDTW 100753Z 06012KT 10SM OVC017 01/M03 A3027 RMK AO2 SLP255 T00061033 PNO

KEWR 100751Z 02008KT 10SM CLR M01/M10 A3032 RMK AO2 SLP265 T10061100

KFLL 100753Z 34003KT 10SM CLR 20/18 A3006 RMK AO2 SLP178 T02000178 $

KIAD 100752Z 05005KT 10SM FEW040 M02/M05 A3029 RMK AO2 SLP259 T10221050

KIAH 100753Z 17004KT 7SM BKN009 BKN017 21/21 A3008 RMK AO2 SLP186 T02110206

KJFK 100751Z 36009KT 10SM CLR 01/M09 A3032 RMK AO2 SLP267 T00061094

KLAS 100756Z 18003KT 10SM FEW250 05/M04 A3009 RMK AO2 SLP191 T00501039 401280028

KLAX 100753Z 04004KT 10SM SCT015 BKN030 12/08 A3013 RMK AO2 SLP203 T01220083 401670067 $

KLGA 100751Z 01006KT 10SM CLR 01/M10 A3032 RMK AO2 SLP266 T00061100

KMCO 100753Z 31003KT 8SM CLR 17/16 A3010 RMK AO2 SLP191 T01720161

KMDW 100753Z 09006KT 6SM BR FEW009 BKN011 OVC029 03/01 A3022 RMK AO2 SLP244 T00280006

KMEM 100754Z 09004KT 1/4SM R36L/1200V1600FT FG SCT000 BKN250 08/08 A3015 RMK AO2 SLP208 FG SCT000 T00830083

KMIA 100753Z 00000KT 10SM CLR 22/18 A3007 RMK AO2 SLP182 T02170178

KMSP 100753Z 12011KT 5SM -SN BR OVC012 M01/M03 A3018 RMK AO2 SLP232 P0000 T10061028

KORD 100751Z 08005KT 6SM BR OVC010 03/01 A3021 RMK AO2 SLP237 T00330011 $

KPDX 100753Z 12012KT 10SM BKN040 OVC045 06/03 A2945 RMK AO2 RAE24 SLP971 P0000 T00610033 400670044

KPHL 100754Z 03005KT 10SM CLR 01/M08 A3030 RMK AO2 SLP260 T00061083 $

KPHX 100751Z 00000KT 10SM FEW250 09/03 A3006 RMK AO2 SLP174 T00890028

KPIT 100751Z 07005KT 10SM -RA BKN033 OVC044 01/M02 A3017 RMK AO2 SLP232 P0003 T00061017

KSAN 100751Z 00000KT 10SM CLR 08/06 A3016 RMK AO2 SLP211 T00830061 401670061

KSEA 100753Z 11010KT 8SM -RA BKN038 OVC050 04/02 A2935 RMK AO2 SLP948 P0005 T00440017 400610022

KSFO 100756Z 16013KT 10SM BKN040 OVC100 11/06 A2998 RMK AO2 SLP152 T01110061 401170061

KSLC 100754Z 15008KT 10SM BKN110 00/M04 A3007 RMK AO2 SLP188 T00001044

KSTL 100751Z 23003KT 8SM BKN021 02/00 A3018 RMK AO2 SLP223 T00220000

KTPA 100753Z 35005KT 3SM OVC004 17/17 A3011 RMK AO2 SFC VIS 9 RAE0659 SLP197 P0002 T01720167